sensor_id;sensor_type;location;lat;lon;timestamp;pressure;altitude;pressure_sealevel;temperature;humidity
21361;BME280;10839;43.206;23.550;2024-03-06T00:02:23;97043.50;;;6.58;100.00
21361;BME280;10839;43.206;23.550;2024-03-06T00:04:48;97028.16;;;6.52;100.00
21361;BME280;10839;43.206;23.550;2024-03-06T00:07:14;97049.88;;;6.49;100.00
21361;BME280;10839;43.206;23.550;2024-03-06T00:09:39;97061.09;;;6.36;100.00
21361;BME280;10839;43.206;23.550;2024-03-06T00:12:05;97056.44;;;6.30;100.00
21361;BME280;10839;43.206;23.550;2024-03-06T00:14:31;97053.22;;;6.51;100.00
21361;BME280;10839;43.206;23.550;2024-03-06T00:16:57;97058.84;;;6.64;100.00
21361;BME280;10839;43.206;23.550;2024-03-06T00:19:23;97049.44;;;6.76;100.00
21361;BME280;10839;43.206;23.550;2024-03-06T00:21:48;97054.47;;;6.71;100.00
21361;BME280;10839;43.206;23.550;2024-03-06T00:24:15;97047.66;;;6.69;100.00
21361;BME280;10839;43.206;23.550;2024-03-06T00:26:44;97049.47;;;6.68;100.00
21361;BME280;10839;43.206;23.550;2024-03-06T00:29:10;97055.38;;;6.94;100.00
21361;BME280;10839;43.206;23.550;2024-03-06T00:31:36;97048.13;;;6.64;100.00
21361;BME280;10839;43.206;23.550;2024-03-06T00:34:02;97057.06;;;6.87;100.00
21361;BME280;10839;43.206;23.550;2024-03-06T00:36:27;97061.72;;;6.93;100.00
21361;BME280;10839;43.206;23.550;2024-03-06T00:38:59;97059.31;;;7.06;100.00
21361;BME280;10839;43.206;23.550;2024-03-06T00:41:24;97047.66;;;6.99;100.00
21361;BME280;10839;43.206;23.550;2024-03-06T00:43:50;97055.63;;;7.07;100.00
21361;BME280;10839;43.206;23.550;2024-03-06T00:46:15;97047.53;;;6.93;100.00
21361;BME280;10839;43.206;23.550;2024-03-06T00:48:41;97047.78;;;7.06;100.00
21361;BME280;10839;43.206;23.550;2024-03-06T00:51:07;97054.38;;;6.95;100.00
21361;BME280;10839;43.206;23.550;2024-03-06T00:53:35;97054.53;;;6.94;100.00
21361;BME280;10839;43.206;23.550;2024-03-06T00:56:01;97055.06;;;6.89;100.00
21361;BME280;10839;43.206;23.550;2024-03-06T00:58:27;97045.50;;;6.56;100.00
21361;BME280;10839;43.206;23.550;2024-03-06T01:00:52;97056.44;;;6.77;100.00
21361;BME280;10839;43.206;23.550;2024-03-06T01:03:18;97038.78;;;6.68;100.00
21361;BME280;10839;43.206;23.550;2024-03-06T01:05:43;97053.72;;;6.93;100.00
21361;BME280;10839;43.206;23.550;2024-03-06T01:08:09;97050.78;;;6.72;100.00
21361;BME280;10839;43.206;23.550;2024-03-06T01:10:34;97058.31;;;6.77;100.00
21361;BME280;10839;43.206;23.550;2024-03-06T01:13:00;97051.84;;;6.63;100.00
21361;BME280;10839;43.206;23.550;2024-03-06T01:15:27;97050.16;;;6.62;100.00
21361;BME280;10839;43.206;23.550;2024-03-06T01:17:53;97034.25;;;6.30;100.00
21361;BME280;10839;43.206;23.550;2024-03-06T01:20:18;97039.88;;;6.43;100.00
21361;BME280;10839;43.206;23.550;2024-03-06T01:22:44;97046.94;;;6.28;100.00
21361;BME280;10839;43.206;23.550;2024-03-06T01:25:11;97045.19;;;6.51;100.00
21361;BME280;10839;43.206;23.550;2024-03-06T01:27:37;97051.19;;;6.53;100.00
21361;BME280;10839;43.206;23.550;2024-03-06T01:30:03;97041.91;;;6.33;100.00
21361;BME280;10839;43.206;23.550;2024-03-06T01:32:29;97056.78;;;6.27;100.00
21361;BME280;10839;43.206;23.550;2024-03-06T01:34:55;97052.63;;;6.25;100.00
21361;BME280;10839;43.206;23.550;2024-03-06T01:37:20;97064.47;;;6.22;100.00
21361;BME280;10839;43.206;23.550;2024-03-06T01:39:46;97058.63;;;6.19;100.00
21361;BME280;10839;43.206;23.550;2024-03-06T01:42:11;97060.66;;;6.01;100.00
21361;BME280;10839;43.206;23.550;2024-03-06T01:44:37;97051.28;;;6.21;100.00
21361;BME280;10839;43.206;23.550;2024-03-06T01:47:03;97051.63;;;6.18;100.00
21361;BME280;10839;43.206;23.550;2024-03-06T01:49:29;97040.28;;;6.08;100.00
21361;BME280;10839;43.206;23.550;2024-03-06T01:51:57;97042.28;;;6.06;100.00
21361;BME280;10839;43.206;23.550;2024-03-06T01:54:25;97044.28;;;6.20;100.00
21361;BME280;10839;43.206;23.550;2024-03-06T01:56:51;97052.66;;;6.17;100.00
21361;BME280;10839;43.206;23.550;2024-03-06T01:59:21;97036.41;;;6.26;100.00
21361;BME280;10839;43.206;23.550;2024-03-06T02:01:46;97050.31;;;5.98;100.00
21361;BME280;10839;43.206;23.550;2024-03-06T02:04:13;97034.66;;;5.95;100.00
21361;BME280;10839;43.206;23.550;2024-03-06T02:06:39;97034.63;;;5.63;100.00
21361;BME280;10839;43.206;23.550;2024-03-06T02:09:05;97041.31;;;5.67;100.00
21361;BME280;10839;43.206;23.550;2024-03-06T02:11:33;97050.16;;;5.75;100.00
21361;BME280;10839;43.206;23.550;2024-03-06T02:13:58;97051.31;;;5.65;100.00
21361;BME280;10839;43.206;23.550;2024-03-06T02:16:24;97044.97;;;5.66;100.00
21361;BME280;10839;43.206;23.550;2024-03-06T02:18:54;97050.31;;;5.98;100.00
21361;BME280;10839;43.206;23.550;2024-03-06T02:21:24;97043.63;;;5.78;100.00
21361;BME280;10839;43.206;23.550;2024-03-06T02:23:50;97042.66;;;5.87;100.00
21361;BME280;10839;43.206;23.550;2024-03-06T02:26:20;97047.31;;;5.77;100.00
21361;BME280;10839;43.206;23.550;2024-03-06T02:28:50;97038.34;;;5.94;100.00
21361;BME280;10839;43.206;23.550;2024-03-06T02:31:16;97044.97;;;5.82;100.00
21361;BME280;10839;43.206;23.550;2024-03-06T02:33:43;97034.00;;;5.85;100.00
21361;BME280;10839;43.206;23.550;2024-03-06T02:36:12;97049.31;;;5.91;100.00
21361;BME280;10839;43.206;23.550;2024-03-06T02:38:38;97040.34;;;5.92;100.00
21361;BME280;10839;43.206;23.550;2024-03-06T02:41:04;97037.00;;;5.90;100.00
21361;BME280;10839;43.206;23.550;2024-03-06T02:43:32;97040.97;;;5.86;100.00
21361;BME280;10839;43.206;23.550;2024-03-06T02:45:57;97031.66;;;5.74;100.00
21361;BME280;10839;43.206;23.550;2024-03-06T02:48:23;97035.66;;;5.86;100.00
21361;BME280;10839;43.206;23.550;2024-03-06T02:50:48;97031.97;;;6.03;100.00
21361;BME280;10839;43.206;23.550;2024-03-06T02:53:14;97019.00;;;5.84;100.00
21361;BME280;10839;43.206;23.550;2024-03-06T02:55:39;97038.47;;;5.68;100.00
21361;BME280;10839;43.206;23.550;2024-03-06T02:58:05;97043.97;;;5.75;100.00
21361;BME280;10839;43.206;23.550;2024-03-06T03:00:31;97028.94;;;5.66;100.00
21361;BME280;10839;43.206;23.550;2024-03-06T03:02:57;97044.81;;;5.91;100.00
21361;BME280;10839;43.206;23.550;2024-03-06T03:05:23;97046.31;;;5.70;100.00
21361;BME280;10839;43.206;23.550;2024-03-06T03:07:49;97045.63;;;5.68;100.00
21361;BME280;10839;43.206;23.550;2024-03-06T03:10:15;97047.31;;;5.53;100.00
21361;BME280;10839;43.206;23.550;2024-03-06T03:12:41;97042.97;;;5.68;100.00
21361;BME280;10839;43.206;23.550;2024-03-06T03:15:07;97042.34;;;5.90;100.00
21361;BME280;10839;43.206;23.550;2024-03-06T03:17:32;97044.97;;;5.82;100.00
21361;BME280;10839;43.206;23.550;2024-03-06T03:19:59;97036.97;;;5.74;100.00
21361;BME280;10839;43.206;23.550;2024-03-06T03:22:25;97037.69;;;5.84;100.00
21361;BME280;10839;43.206;23.550;2024-03-06T03:24:50;97046.31;;;5.78;100.00
21361;BME280;10839;43.206;23.550;2024-03-06T03:27:16;97051.97;;;5.75;100.00
21361;BME280;10839;43.206;23.550;2024-03-06T03:29:42;97048.34;;;5.84;100.00
21361;BME280;10839;43.206;23.550;2024-03-06T03:32:08;97062.69;;;5.99;100.00
21361;BME280;10839;43.206;23.550;2024-03-06T03:34:36;97068.03;;;5.83;100.00
21361;BME280;10839;43.206;23.550;2024-03-06T03:37:02;97075.72;;;5.94;100.00
21361;BME280;10839;43.206;23.550;2024-03-06T03:39:27;97079.66;;;6.30;100.00
21361;BME280;10839;43.206;23.550;2024-03-06T03:41:53;97090.47;;;6.44;100.00
21361;BME280;10839;43.206;23.550;2024-03-06T03:44:19;97084.59;;;6.49;100.00
21361;BME280;10839;43.206;23.550;2024-03-06T03:46:45;97105.97;;;6.65;100.00
21361;BME280;10839;43.206;23.550;2024-03-06T03:49:11;97103.19;;;6.89;100.00
21361;BME280;10839;43.206;23.550;2024-03-06T03:51:38;97088.88;;;6.74;100.00
21361;BME280;10839;43.206;23.550;2024-03-06T03:54:04;97084.13;;;6.92;100.00
21361;BME280;10839;43.206;23.550;2024-03-06T03:56:30;97097.19;;;6.87;100.00
21361;BME280;10839;43.206;23.550;2024-03-06T03:58:56;97099.50;;;6.98;100.00
21361;BME280;10839;43.206;23.550;2024-03-06T04:01:23;97103.78;;;7.07;100.00
21361;BME280;10839;43.206;23.550;2024-03-06T04:03:48;97106.63;;;7.06;100.00
21361;BME280;10839;43.206;23.550;2024-03-06T04:06:14;97106.13;;;7.10;100.00
21361;BME280;10839;43.206;23.550;2024-03-06T04:08:39;97099.28;;;7.08;100.00
21361;BME280;10839;43.206;23.550;2024-03-06T04:11:06;97100.72;;;7.18;100.00
21361;BME280;10839;43.206;23.550;2024-03-06T04:13:36;97112.66;;;7.38;100.00
21361;BME280;10839;43.206;23.550;2024-03-06T04:16:02;97118.88;;;7.31;100.00
21361;BME280;10839;43.206;23.550;2024-03-06T04:18:29;97115.66;;;7.43;100.00
21361;BME280;10839;43.206;23.550;2024-03-06T04:20:54;97127.28;;;7.50;100.00
21361;BME280;10839;43.206;23.550;2024-03-06T04:23:19;97117.44;;;7.51;100.00
21361;BME280;10839;43.206;23.550;2024-03-06T04:25:45;97111.69;;;7.31;100.00
21361;BME280;10839;43.206;23.550;2024-03-06T04:28:10;97113.66;;;7.37;100.00
21361;BME280;10839;43.206;23.550;2024-03-06T04:30:36;97115.97;;;7.40;100.00
21361;BME280;10839;43.206;23.550;2024-03-06T04:33:02;97109.31;;;7.36;100.00
21361;BME280;10839;43.206;23.550;2024-03-06T04:35:27;97116.03;;;7.32;100.00
21361;BME280;10839;43.206;23.550;2024-03-06T04:37:53;97125.03;;;7.39;100.00
21361;BME280;10839;43.206;23.550;2024-03-06T04:40:18;97108.84;;;7.33;100.00
21361;BME280;10839;43.206;23.550;2024-03-06T04:42:47;97103.50;;;7.55;100.00
21361;BME280;10839;43.206;23.550;2024-03-06T04:45:15;97113.03;;;7.58;100.00
21361;BME280;10839;43.206;23.550;2024-03-06T04:47:41;97124.97;;;7.47;100.00
21361;BME280;10839;43.206;23.550;2024-03-06T04:50:10;97115.41;;;7.53;100.00
21361;BME280;10839;43.206;23.550;2024-03-06T04:52:40;97126.69;;;7.40;100.00
21361;BME280;10839;43.206;23.550;2024-03-06T04:55:07;97120.53;;;7.40;100.00
21361;BME280;10839;43.206;23.550;2024-03-06T04:57:33;97122.66;;;7.44;100.00
21361;BME280;10839;43.206;23.550;2024-03-06T04:59:59;97123.44;;;7.22;100.00
21361;BME280;10839;43.206;23.550;2024-03-06T05:02:25;97114.19;;;7.33;100.00
21361;BME280;10839;43.206;23.550;2024-03-06T05:04:53;97122.66;;;7.44;100.00
21361;BME280;10839;43.206;23.550;2024-03-06T05:07:19;97130.06;;;7.34;100.00
21361;BME280;10839;43.206;23.550;2024-03-06T05:09:44;97121.75;;;7.29;100.00
21361;BME280;10839;43.206;23.550;2024-03-06T05:12:10;97132.03;;;7.40;100.00
21361;BME280;10839;43.206;23.550;2024-03-06T05:14:36;97133.00;;;7.47;100.00
21361;BME280;10839;43.206;23.550;2024-03-06T05:17:02;97141.94;;;7.62;100.00
21361;BME280;10839;43.206;23.550;2024-03-06T05:19:28;97138.75;;;7.67;100.00
21361;BME280;10839;43.206;23.550;2024-03-06T05:21:58;97143.88;;;7.76;100.00
21361;BME280;10839;43.206;23.550;2024-03-06T05:24:24;97154.84;;;7.90;100.00
21361;BME280;10839;43.206;23.550;2024-03-06T05:26:49;97156.53;;;8.05;100.00
21361;BME280;10839;43.206;23.550;2024-03-06T05:29:16;97164.28;;;7.77;100.00
21361;BME280;10839;43.206;23.550;2024-03-06T05:31:41;97156.97;;;7.71;100.00
21361;BME280;10839;43.206;23.550;2024-03-06T05:34:07;97149.56;;;7.73;100.00
21361;BME280;10839;43.206;23.550;2024-03-06T05:36:33;97163.63;;;7.75;100.00
21361;BME280;10839;43.206;23.550;2024-03-06T05:38:58;97158.19;;;7.92;100.00
21361;BME280;10839;43.206;23.550;2024-03-06T05:41:24;97152.91;;;7.75;100.00
21361;BME280;10839;43.206;23.550;2024-03-06T05:43:49;97162.34;;;7.71;100.00
21361;BME280;10839;43.206;23.550;2024-03-06T05:46:15;97155.28;;;7.70;100.00
21361;BME280;10839;43.206;23.550;2024-03-06T05:48:41;97141.25;;;7.68;100.00
21361;BME280;10839;43.206;23.550;2024-03-06T05:51:07;97150.22;;;7.75;100.00
21361;BME280;10839;43.206;23.550;2024-03-06T05:53:38;97156.56;;;7.82;100.00
21361;BME280;10839;43.206;23.550;2024-03-06T05:56:06;97153.69;;;7.84;100.00
21361;BME280;10839;43.206;23.550;2024-03-06T05:58:32;97159.47;;;7.73;100.00
21361;BME280;10839;43.206;23.550;2024-03-06T06:00:58;97173.91;;;7.95;100.00
21361;BME280;10839;43.206;23.550;2024-03-06T06:03:23;97162.63;;;7.76;100.00
21361;BME280;10839;43.206;23.550;2024-03-06T06:05:49;97176.56;;;7.95;100.00
21361;BME280;10839;43.206;23.550;2024-03-06T06:08:14;97182.41;;;7.67;100.00
21361;BME280;10839;43.206;23.550;2024-03-06T06:10:39;97186.91;;;7.44;100.00
21361;BME280;10839;43.206;23.550;2024-03-06T06:13:05;97192.78;;;7.70;100.00
21361;BME280;10839;43.206;23.550;2024-03-06T06:15:31;97194.81;;;7.68;100.00
21361;BME280;10839;43.206;23.550;2024-03-06T06:17:56;97186.00;;;7.82;100.00
21361;BME280;10839;43.206;23.550;2024-03-06T06:20:22;97198.69;;;7.89;100.00
21361;BME280;10839;43.206;23.550;2024-03-06T06:22:47;97198.38;;;7.83;100.00
21361;BME280;10839;43.206;23.550;2024-03-06T06:25:13;97192.22;;;8.06;100.00
21361;BME280;10839;43.206;23.550;2024-03-06T06:27:40;97201.75;;;8.08;100.00
21361;BME280;10839;43.206;23.550;2024-03-06T06:30:07;97199.25;;;8.07;100.00
21361;BME280;10839;43.206;23.550;2024-03-06T06:32:37;97186.50;;;8.09;100.00
21361;BME280;10839;43.206;23.550;2024-03-06T06:35:04;97207.88;;;8.25;100.00
21361;BME280;10839;43.206;23.550;2024-03-06T06:37:30;97196.88;;;8.12;100.00
21361;BME280;10839;43.206;23.550;2024-03-06T06:39:55;97192.78;;;8.24;100.00
21361;BME280;10839;43.206;23.550;2024-03-06T06:42:21;97193.09;;;8.29;100.00
21361;BME280;10839;43.206;23.550;2024-03-06T06:44:46;97193.31;;;8.42;100.00
21361;BME280;10839;43.206;23.550;2024-03-06T06:47:12;97197.81;;;8.19;100.00
21361;BME280;10839;43.206;23.550;2024-03-06T06:49:37;97191.06;;;8.31;100.00
21361;BME280;10839;43.206;23.550;2024-03-06T06:52:03;97192.81;;;8.16;100.00
21361;BME280;10839;43.206;23.550;2024-03-06T06:54:28;97195.75;;;8.29;100.00
21361;BME280;10839;43.206;23.550;2024-03-06T06:56:54;97205.72;;;8.43;100.00
21361;BME280;10839;43.206;23.550;2024-03-06T06:59:19;97206.09;;;8.40;100.00
21361;BME280;10839;43.206;23.550;2024-03-06T07:01:47;97206.19;;;8.24;100.00
21361;BME280;10839;43.206;23.550;2024-03-06T07:04:13;97213.56;;;8.44;100.00
21361;BME280;10839;43.206;23.550;2024-03-06T07:06:42;97213.53;;;8.30;100.00
21361;BME280;10839;43.206;23.550;2024-03-06T07:09:07;97216.38;;;8.51;100.00
21361;BME280;10839;43.206;23.550;2024-03-06T07:11:34;97217.25;;;8.66;100.00
21361;BME280;10839;43.206;23.550;2024-03-06T07:14:00;97218.56;;;8.70;100.00
21361;BME280;10839;43.206;23.550;2024-03-06T07:16:25;97214.63;;;8.58;100.00
21361;BME280;10839;43.206;23.550;2024-03-06T07:18:51;97226.00;;;8.97;100.00
21361;BME280;10839;43.206;23.550;2024-03-06T07:21:16;97232.31;;;8.67;100.00
21361;BME280;10839;43.206;23.550;2024-03-06T07:23:43;97232.31;;;8.67;100.00
21361;BME280;10839;43.206;23.550;2024-03-06T07:26:09;97239.69;;;9.02;100.00
21361;BME280;10839;43.206;23.550;2024-03-06T07:28:35;97238.75;;;8.95;100.00
21361;BME280;10839;43.206;23.550;2024-03-06T07:31:02;97245.44;;;8.99;100.00
21361;BME280;10839;43.206;23.550;2024-03-06T07:33:28;97231.34;;;8.82;100.00
21361;BME280;10839;43.206;23.550;2024-03-06T07:35:54;97246.31;;;8.77;100.00
21361;BME280;10839;43.206;23.550;2024-03-06T07:38:20;97240.53;;;8.88;100.00
21361;BME280;10839;43.206;23.550;2024-03-06T07:40:46;97232.38;;;8.81;100.00
21361;BME280;10839;43.206;23.550;2024-03-06T07:43:11;97225.22;;;8.88;100.00
21361;BME280;10839;43.206;23.550;2024-03-06T07:45:37;97237.19;;;8.86;100.00
21361;BME280;10839;43.206;23.550;2024-03-06T07:48:03;97237.47;;;8.91;100.00
21361;BME280;10839;43.206;23.550;2024-03-06T07:50:29;97234.13;;;8.89;100.00
21361;BME280;10839;43.206;23.550;2024-03-06T07:52:54;97236.72;;;8.97;100.00
21361;BME280;10839;43.206;23.550;2024-03-06T07:55:20;97232.78;;;9.07;100.00
21361;BME280;10839;43.206;23.550;2024-03-06T07:57:47;97233.16;;;9.34;100.00
21361;BME280;10839;43.206;23.550;2024-03-06T08:00:13;97227.69;;;9.27;100.00
21361;BME280;10839;43.206;23.550;2024-03-06T08:02:45;97234.63;;;9.07;100.00
21361;BME280;10839;43.206;23.550;2024-03-06T08:05:15;97235.72;;;8.98;100.00
21361;BME280;10839;43.206;23.550;2024-03-06T08:07:42;97228.06;;;9.24;100.00
21361;BME280;10839;43.206;23.550;2024-03-06T08:10:11;97234.38;;;9.31;100.00
21361;BME280;10839;43.206;23.550;2024-03-06T08:12:40;97232.13;;;9.49;100.00
21361;BME280;10839;43.206;23.550;2024-03-06T08:15:08;97228.78;;;9.47;100.00
21361;BME280;10839;43.206;23.550;2024-03-06T08:17:35;97241.56;;;9.45;100.00
21361;BME280;10839;43.206;23.550;2024-03-06T08:20:02;97239.72;;;9.60;100.00
21361;BME280;10839;43.206;23.550;2024-03-06T08:22:40;97228.69;;;9.70;100.00
21361;BME280;10839;43.206;23.550;2024-03-06T08:25:07;97236.56;;;9.71;100.00
21361;BME280;10839;43.206;23.550;2024-03-06T08:27:34;97241.19;;;9.77;100.00
21361;BME280;10839;43.206;23.550;2024-03-06T08:29:59;97248.47;;;9.83;100.00
21361;BME280;10839;43.206;23.550;2024-03-06T08:32:25;97245.31;;;9.94;100.00
21361;BME280;10839;43.206;23.550;2024-03-06T08:34:50;97232.84;;;9.72;100.00
21361;BME280;10839;43.206;23.550;2024-03-06T08:37:16;97239.88;;;9.73;100.00
21361;BME280;10839;43.206;23.550;2024-03-06T08:39:41;97240.88;;;9.87;100.00
21361;BME280;10839;43.206;23.550;2024-03-06T08:42:07;97241.34;;;9.90;100.00
21361;BME280;10839;43.206;23.550;2024-03-06T08:44:33;97241.81;;;9.94;100.00
21361;BME280;10839;43.206;23.550;2024-03-06T08:46:59;97244.19;;;10.03;100.00
21361;BME280;10839;43.206;23.550;2024-03-06T08:49:24;97242.53;;;10.02;100.00
21361;BME280;10839;43.206;23.550;2024-03-06T08:51:50;97233.34;;;9.97;100.00
21361;BME280;10839;43.206;23.550;2024-03-06T08:54:15;97257.09;;;9.93;100.00
21361;BME280;10839;43.206;23.550;2024-03-06T08:56:43;97259.50;;;9.88;100.00
21361;BME280;10839;43.206;23.550;2024-03-06T08:59:09;97258.59;;;9.81;100.00
21361;BME280;10839;43.206;23.550;2024-03-06T09:01:34;97256.53;;;9.83;100.00
21361;BME280;10839;43.206;23.550;2024-03-06T09:04:00;97271.66;;;9.84;100.00
21361;BME280;10839;43.206;23.550;2024-03-06T09:06:25;97267.38;;;9.90;100.00
21361;BME280;10839;43.206;23.550;2024-03-06T09:08:52;97259.63;;;9.80;100.00
21361;BME280;10839;43.206;23.550;2024-03-06T09:11:18;97256.91;;;9.80;100.00
21361;BME280;10839;43.206;23.550;2024-03-06T09:13:43;97269.63;;;9.86;100.00
21361;BME280;10839;43.206;23.550;2024-03-06T09:16:08;97250.59;;;10.02;100.00
21361;BME280;10839;43.206;23.550;2024-03-06T09:18:34;97260.72;;;9.86;100.00
21361;BME280;10839;43.206;23.550;2024-03-06T09:21:00;97248.97;;;9.43;100.00
21361;BME280;10839;43.206;23.550;2024-03-06T09:23:25;97264.06;;;9.59;100.00
21361;BME280;10839;43.206;23.550;2024-03-06T09:25:51;97240.22;;;9.99;100.00
21361;BME280;10839;43.206;23.550;2024-03-06T09:28:17;97261.91;;;10.12;100.00
21361;BME280;10839;43.206;23.550;2024-03-06T09:30:42;97259.22;;;10.12;100.00
21361;BME280;10839;43.206;23.550;2024-03-06T09:33:08;97254.63;;;10.27;100.00
21361;BME280;10839;43.206;23.550;2024-03-06T09:35:33;97266.06;;;10.51;100.00
21361;BME280;10839;43.206;23.550;2024-03-06T09:37:59;97257.44;;;10.62;100.00
21361;BME280;10839;43.206;23.550;2024-03-06T09:40:26;97262.09;;;10.68;100.00
21361;BME280;10839;43.206;23.550;2024-03-06T09:42:52;97269.31;;;10.67;100.00
21361;BME280;10839;43.206;23.550;2024-03-06T09:45:18;97262.94;;;10.75;100.00
21361;BME280;10839;43.206;23.550;2024-03-06T09:47:46;97264.84;;;11.02;100.00
21361;BME280;10839;43.206;23.550;2024-03-06T09:50:16;97269.56;;;10.72;100.00
21361;BME280;10839;43.206;23.550;2024-03-06T09:52:43;97269.59;;;10.37;100.00
21361;BME280;10839;43.206;23.550;2024-03-06T09:55:11;97257.97;;;10.29;100.00
21361;BME280;10839;43.206;23.550;2024-03-06T09:57:38;97254.13;;;10.60;100.00
21361;BME280;10839;43.206;23.550;2024-03-06T10:00:05;97258.81;;;10.72;100.00
21361;BME280;10839;43.206;23.550;2024-03-06T10:02:49;97261.03;;;10.69;100.00
21361;BME280;10839;43.206;23.550;2024-03-06T10:05:21;97265.59;;;10.47;100.00
21361;BME280;10839;43.206;23.550;2024-03-06T10:07:47;97250.22;;;10.41;100.00
21361;BME280;10839;43.206;23.550;2024-03-06T10:10:14;97256.16;;;10.37;100.00
21361;BME280;10839;43.206;23.550;2024-03-06T10:12:41;97259.06;;;9.70;100.00
21361;BME280;10839;43.206;23.550;2024-03-06T10:15:06;97249.56;;;10.60;100.00
21361;BME280;10839;43.206;23.550;2024-03-06T10:17:35;97242.09;;;10.56;100.00
21361;BME280;10839;43.206;23.550;2024-03-06T10:20:01;97257.53;;;10.89;100.00
21361;BME280;10839;43.206;23.550;2024-03-06T10:22:30;97246.88;;;11.36;100.00
21361;BME280;10839;43.206;23.550;2024-03-06T10:24:56;97254.25;;;10.73;100.00
21361;BME280;10839;43.206;23.550;2024-03-06T10:27:22;97236.97;;;10.40;100.00
21361;BME280;10839;43.206;23.550;2024-03-06T10:30:02;97244.75;;;10.77;100.00
21361;BME280;10839;43.206;23.550;2024-03-06T10:32:30;97236.03;;;10.75;100.00
21361;BME280;10839;43.206;23.550;2024-03-06T10:34:55;97245.84;;;11.10;100.00
21361;BME280;10839;43.206;23.550;2024-03-06T10:37:22;97244.25;;;11.77;100.00
21361;BME280;10839;43.206;23.550;2024-03-06T10:39:51;97234.00;;;12.00;100.00
21361;BME280;10839;43.206;23.550;2024-03-06T10:42:20;97240.09;;;11.81;100.00
21361;BME280;10839;43.206;23.550;2024-03-06T10:44:55;97226.31;;;11.63;100.00
21361;BME280;10839;43.206;23.550;2024-03-06T10:47:21;97230.13;;;11.75;100.00
21361;BME280;10839;43.206;23.550;2024-03-06T10:49:48;97220.56;;;10.56;100.00
21361;BME280;10839;43.206;23.550;2024-03-06T10:52:14;97230.28;;;10.78;100.00
21361;BME280;10839;43.206;23.550;2024-03-06T10:54:43;97227.84;;;10.83;100.00
21361;BME280;10839;43.206;23.550;2024-03-06T10:57:11;97219.44;;;10.92;100.00
21361;BME280;10839;43.206;23.550;2024-03-06T10:59:38;97219.03;;;11.23;100.00
21361;BME280;10839;43.206;23.550;2024-03-06T11:02:03;97205.69;;;11.83;100.00
21361;BME280;10839;43.206;23.550;2024-03-06T11:04:30;97207.59;;;12.56;100.00
21361;BME280;10839;43.206;23.550;2024-03-06T11:07:03;97209.94;;;12.05;100.00
21361;BME280;10839;43.206;23.550;2024-03-06T11:09:36;97218.75;;;12.53;100.00
21361;BME280;10839;43.206;23.550;2024-03-06T11:12:06;97202.13;;;12.36;100.00
21361;BME280;10839;43.206;23.550;2024-03-06T11:14:39;97197.88;;;12.01;100.00
21361;BME280;10839;43.206;23.550;2024-03-06T11:17:05;97190.88;;;12.13;100.00
21361;BME280;10839;43.206;23.550;2024-03-06T11:19:32;97196.78;;;13.28;100.00
21361;BME280;10839;43.206;23.550;2024-03-06T11:22:18;97186.84;;;14.23;95.21
21361;BME280;10839;43.206;23.550;2024-03-06T11:24:43;97188.16;;;15.25;90.27
21361;BME280;10839;43.206;23.550;2024-03-06T11:27:09;97189.97;;;15.13;89.57
21361;BME280;10839;43.206;23.550;2024-03-06T11:30:10;97196.03;;;14.22;89.89
21361;BME280;10839;43.206;23.550;2024-03-06T11:32:58;97190.94;;;14.45;91.63
21361;BME280;10839;43.206;23.550;2024-03-06T11:35:30;97174.97;;;13.86;90.99
21361;BME280;10839;43.206;23.550;2024-03-06T11:37:55;97176.94;;;14.04;92.03
21361;BME280;10839;43.206;23.550;2024-03-06T11:40:24;97173.16;;;14.18;90.37
21361;BME280;10839;43.206;23.550;2024-03-06T11:42:50;97168.16;;;14.15;90.58
21361;BME280;10839;43.206;23.550;2024-03-06T11:45:17;97165.72;;;14.07;88.92
21361;BME280;10839;43.206;23.550;2024-03-06T11:48:01;97168.59;;;14.12;89.22
21361;BME280;10839;43.206;23.550;2024-03-06T11:50:28;97164.22;;;14.11;90.29
21361;BME280;10839;43.206;23.550;2024-03-06T11:52:55;97158.09;;;14.35;89.82
21361;BME280;10839;43.206;23.550;2024-03-06T11:55:21;97152.13;;;13.76;94.04
21361;BME280;10839;43.206;23.550;2024-03-06T11:57:47;97155.38;;;13.91;94.18
21361;BME280;10839;43.206;23.550;2024-03-06T12:00:13;97159.28;;;14.39;91.59
21361;BME280;10839;43.206;23.550;2024-03-06T12:02:40;97145.19;;;14.24;91.11
21361;BME280;10839;43.206;23.550;2024-03-06T12:05:06;97149.75;;;14.37;91.22
21361;BME280;10839;43.206;23.550;2024-03-06T12:07:31;97143.28;;;14.62;91.53
21361;BME280;10839;43.206;23.550;2024-03-06T12:09:58;97144.69;;;14.96;90.16
21361;BME280;10839;43.206;23.550;2024-03-06T12:12:24;97138.94;;;15.28;88.43
21361;BME280;10839;43.206;23.550;2024-03-06T12:14:59;97138.97;;;15.65;86.06
21361;BME280;10839;43.206;23.550;2024-03-06T12:17:25;97139.59;;;15.67;84.88
21361;BME280;10839;43.206;23.550;2024-03-06T12:19:55;97130.59;;;15.30;85.19
21361;BME280;10839;43.206;23.550;2024-03-06T12:22:25;97137.88;;;15.11;87.51
21361;BME280;10839;43.206;23.550;2024-03-06T12:25:00;97135.34;;;15.34;86.90
21361;BME280;10839;43.206;23.550;2024-03-06T12:27:26;97123.63;;;15.59;84.95
21361;BME280;10839;43.206;23.550;2024-03-06T12:29:52;97131.31;;;15.62;86.06
21361;BME280;10839;43.206;23.550;2024-03-06T12:32:19;97127.69;;;15.50;85.53
21361;BME280;10839;43.206;23.550;2024-03-06T12:34:56;97126.13;;;15.17;85.77
21361;BME280;10839;43.206;23.550;2024-03-06T12:37:28;97129.31;;;14.90;87.48
21361;BME280;10839;43.206;23.550;2024-03-06T12:39:55;97124.56;;;14.85;88.36
21361;BME280;10839;43.206;23.550;2024-03-06T12:42:21;97121.94;;;14.79;89.97
21361;BME280;10839;43.206;23.550;2024-03-06T12:44:46;97124.16;;;15.06;88.44
21361;BME280;10839;43.206;23.550;2024-03-06T12:47:13;97116.28;;;14.80;90.20